sensor_id;sensor_type;location;lat;lon;timestamp;P1;durP1;ratioP1;P2;durP2;ratioP2
12474;SDS011;6302;42.624;23.334;2023-04-30T00:01:26;7.87;;;5.90;;
12474;SDS011;6302;42.624;23.334;2023-04-30T00:03:52;7.20;;;5.70;;
12474;SDS011;6302;42.624;23.334;2023-04-30T00:06:19;7.10;;;6.23;;
12474;SDS011;6302;42.624;23.334;2023-04-30T00:08:46;7.10;;;5.73;;
12474;SDS011;6302;42.624;23.334;2023-04-30T00:11:13;6.83;;;5.63;;
12474;SDS011;6302;42.624;23.334;2023-04-30T00:13:40;6.83;;;5.80;;
12474;SDS011;6302;42.624;23.334;2023-04-30T00:16:07;9.13;;;6.03;;
12474;SDS011;6302;42.624;23.334;2023-04-30T00:18:36;8.77;;;6.10;;
12474;SDS011;6302;42.624;23.334;2023-04-30T00:21:03;9.17;;;5.97;;
12474;SDS011;6302;42.624;23.334;2023-04-30T00:23:30;6.70;;;6.07;;
12474;SDS011;6302;42.624;23.334;2023-04-30T00:25:57;8.30;;;5.73;;
12474;SDS011;6302;42.624;23.334;2023-04-30T00:28:23;6.10;;;5.50;;
12474;SDS011;6302;42.624;23.334;2023-04-30T00:30:50;7.40;;;6.40;;
12474;SDS011;6302;42.624;23.334;2023-04-30T00:33:17;7.27;;;6.37;;
12474;SDS011;6302;42.624;23.334;2023-04-30T00:35:45;9.77;;;6.20;;
12474;SDS011;6302;42.624;23.334;2023-04-30T00:38:12;8.03;;;5.83;;
12474;SDS011;6302;42.624;23.334;2023-04-30T00:40:39;7.87;;;6.07;;
12474;SDS011;6302;42.624;23.334;2023-04-30T00:43:07;8.23;;;5.70;;
12474;SDS011;6302;42.624;23.334;2023-04-30T00:45:34;9.97;;;5.70;;
12474;SDS011;6302;42.624;23.334;2023-04-30T00:48:00;10.33;;;5.40;;
12474;SDS011;6302;42.624;23.334;2023-04-30T00:50:28;7.83;;;5.40;;
12474;SDS011;6302;42.624;23.334;2023-04-30T00:52:56;9.10;;;5.37;;
12474;SDS011;6302;42.624;23.334;2023-04-30T00:55:24;6.73;;;5.50;;
12474;SDS011;6302;42.624;23.334;2023-04-30T00:57:51;8.80;;;5.37;;
12474;SDS011;6302;42.624;23.334;2023-04-30T01:00:18;5.97;;;5.37;;
12474;SDS011;6302;42.624;23.334;2023-04-30T01:02:45;8.73;;;5.33;;
12474;SDS011;6302;42.624;23.334;2023-04-30T01:05:13;7.27;;;5.07;;
12474;SDS011;6302;42.624;23.334;2023-04-30T01:07:40;6.90;;;5.63;;
12474;SDS011;6302;42.624;23.334;2023-04-30T01:10:11;6.97;;;5.20;;
12474;SDS011;6302;42.624;23.334;2023-04-30T01:12:41;6.27;;;5.13;;
12474;SDS011;6302;42.624;23.334;2023-04-30T01:15:17;5.67;;;5.07;;
12474;SDS011;6302;42.624;23.334;2023-04-30T01:17:51;9.03;;;5.30;;
12474;SDS011;6302;42.624;23.334;2023-04-30T01:20:21;6.23;;;5.30;;
12474;SDS011;6302;42.624;23.334;2023-04-30T01:22:51;6.53;;;5.27;;
12474;SDS011;6302;42.624;23.334;2023-04-30T01:28:24;5.30;;;4.83;;
12474;SDS011;6302;42.624;23.334;2023-04-30T01:30:53;5.80;;;4.57;;
12474;SDS011;6302;42.624;23.334;2023-04-30T01:33:20;5.17;;;4.57;;
12474;SDS011;6302;42.624;23.334;2023-04-30T01:35:58;6.20;;;5.00;;
12474;SDS011;6302;42.624;23.334;2023-04-30T01:38:49;6.03;;;4.83;;
12474;SDS011;6302;42.624;23.334;2023-04-30T01:41:28;5.87;;;4.87;;
12474;SDS011;6302;42.624;23.334;2023-04-30T01:44:05;6.53;;;4.37;;
12474;SDS011;6302;42.624;23.334;2023-04-30T01:46:42;7.40;;;4.20;;
12474;SDS011;6302;42.624;23.334;2023-04-30T01:49:18;6.30;;;5.17;;
12474;SDS011;6302;42.624;23.334;2023-04-30T01:51:54;5.67;;;4.57;;
12474;SDS011;6302;42.624;23.334;2023-04-30T01:54:29;5.70;;;4.03;;
12474;SDS011;6302;42.624;23.334;2023-04-30T01:57:02;11.37;;;4.43;;
12474;SDS011;6302;42.624;23.334;2023-04-30T01:59:33;6.10;;;4.43;;
12474;SDS011;6302;42.624;23.334;2023-04-30T02:02:01;5.50;;;4.00;;
12474;SDS011;6302;42.624;23.334;2023-04-30T02:04:28;5.03;;;3.87;;
12474;SDS011;6302;42.624;23.334;2023-04-30T02:06:55;5.60;;;4.30;;
12474;SDS011;6302;42.624;23.334;2023-04-30T02:09:22;4.80;;;4.13;;
12474;SDS011;6302;42.624;23.334;2023-04-30T02:11:50;4.37;;;3.97;;
12474;SDS011;6302;42.624;23.334;2023-04-30T02:14:16;4.93;;;4.00;;
12474;SDS011;6302;42.624;23.334;2023-04-30T02:16:45;4.57;;;4.13;;
12474;SDS011;6302;42.624;23.334;2023-04-30T02:19:11;5.93;;;4.40;;
12474;SDS011;6302;42.624;23.334;2023-04-30T02:21:38;6.80;;;4.20;;
12474;SDS011;6302;42.624;23.334;2023-04-30T02:24:05;4.80;;;4.17;;
12474;SDS011;6302;42.624;23.334;2023-04-30T02:26:32;4.13;;;3.73;;
12474;SDS011;6302;42.624;23.334;2023-04-30T02:29:01;5.97;;;4.00;;
12474;SDS011;6302;42.624;23.334;2023-04-30T02:31:27;5.17;;;4.20;;
12474;SDS011;6302;42.624;23.334;2023-04-30T02:33:56;6.53;;;4.33;;
12474;SDS011;6302;42.624;23.334;2023-04-30T02:36:23;4.83;;;4.17;;
12474;SDS011;6302;42.624;23.334;2023-04-30T02:38:50;5.53;;;4.60;;
12474;SDS011;6302;42.624;23.334;2023-04-30T02:41:17;4.90;;;4.40;;
12474;SDS011;6302;42.624;23.334;2023-04-30T02:43:43;8.10;;;4.60;;
12474;SDS011;6302;42.624;23.334;2023-04-30T02:46:10;5.77;;;4.70;;
12474;SDS011;6302;42.624;23.334;2023-04-30T02:48:37;6.73;;;4.37;;
12474;SDS011;6302;42.624;23.334;2023-04-30T02:51:05;6.40;;;4.73;;
12474;SDS011;6302;42.624;23.334;2023-04-30T02:53:32;6.30;;;4.90;;
12474;SDS011;6302;42.624;23.334;2023-04-30T02:55:59;6.60;;;4.63;;
12474;SDS011;6302;42.624;23.334;2023-04-30T02:58:25;5.07;;;4.57;;
12474;SDS011;6302;42.624;23.334;2023-04-30T03:00:52;4.90;;;4.00;;
12474;SDS011;6302;42.624;23.334;2023-04-30T03:03:20;5.40;;;4.83;;
12474;SDS011;6302;42.624;23.334;2023-04-30T03:05:47;6.50;;;5.33;;
12474;SDS011;6302;42.624;23.334;2023-04-30T03:08:15;10.10;;;7.10;;
12474;SDS011;6302;42.624;23.334;2023-04-30T03:10:42;9.47;;;7.80;;
12474;SDS011;6302;42.624;23.334;2023-04-30T03:13:08;7.20;;;6.17;;
12474;SDS011;6302;42.624;23.334;2023-04-30T03:15:35;10.10;;;7.17;;
12474;SDS011;6302;42.624;23.334;2023-04-30T03:18:02;7.33;;;6.63;;
12474;SDS011;6302;42.624;23.334;2023-04-30T03:20:29;10.00;;;8.37;;
12474;SDS011;6302;42.624;23.334;2023-04-30T03:22:56;11.53;;;8.13;;
12474;SDS011;6302;42.624;23.334;2023-04-30T03:25:24;11.67;;;8.03;;
12474;SDS011;6302;42.624;23.334;2023-04-30T03:27:51;11.57;;;7.93;;
12474;SDS011;6302;42.624;23.334;2023-04-30T03:30:17;10.43;;;7.53;;
12474;SDS011;6302;42.624;23.334;2023-04-30T03:32:45;13.77;;;8.87;;
12474;SDS011;6302;42.624;23.334;2023-04-30T03:35:11;10.07;;;7.23;;
12474;SDS011;6302;42.624;23.334;2023-04-30T03:37:38;10.50;;;7.90;;
12474;SDS011;6302;42.624;23.334;2023-04-30T03:40:06;10.83;;;8.57;;
12474;SDS011;6302;42.624;23.334;2023-04-30T03:42:35;9.40;;;8.43;;
12474;SDS011;6302;42.624;23.334;2023-04-30T03:45:01;12.33;;;8.07;;
12474;SDS011;6302;42.624;23.334;2023-04-30T03:47:28;12.17;;;8.20;;
12474;SDS011;6302;42.624;23.334;2023-04-30T03:49:55;9.43;;;7.60;;
12474;SDS011;6302;42.624;23.334;2023-04-30T03:52:22;9.13;;;7.73;;
12474;SDS011;6302;42.624;23.334;2023-04-30T03:54:50;9.73;;;8.33;;
12474;SDS011;6302;42.624;23.334;2023-04-30T03:57:17;8.87;;;7.70;;
12474;SDS011;6302;42.624;23.334;2023-04-30T03:59:48;9.83;;;7.70;;
12474;SDS011;6302;42.624;23.334;2023-04-30T04:02:16;13.00;;;8.07;;
12474;SDS011;6302;42.624;23.334;2023-04-30T04:04:43;8.90;;;8.03;;
12474;SDS011;6302;42.624;23.334;2023-04-30T04:07:10;9.13;;;7.07;;
12474;SDS011;6302;42.624;23.334;2023-04-30T04:09:37;9.57;;;6.97;;
12474;SDS011;6302;42.624;23.334;2023-04-30T04:12:04;9.40;;;7.70;;
12474;SDS011;6302;42.624;23.334;2023-04-30T04:14:31;7.97;;;6.60;;
12474;SDS011;6302;42.624;23.334;2023-04-30T04:16:59;8.73;;;6.90;;
12474;SDS011;6302;42.624;23.334;2023-04-30T04:19:26;8.20;;;6.27;;
12474;SDS011;6302;42.624;23.334;2023-04-30T04:21:53;11.00;;;6.50;;
12474;SDS011;6302;42.624;23.334;2023-04-30T04:24:20;11.33;;;6.50;;
12474;SDS011;6302;42.624;23.334;2023-04-30T04:26:46;10.83;;;7.07;;
12474;SDS011;6302;42.624;23.334;2023-04-30T04:29:13;9.07;;;7.77;;
12474;SDS011;6302;42.624;23.334;2023-04-30T04:31:40;8.83;;;7.13;;
12474;SDS011;6302;42.624;23.334;2023-04-30T04:34:08;11.00;;;8.43;;
12474;SDS011;6302;42.624;23.334;2023-04-30T04:36:35;10.70;;;9.03;;
12474;SDS011;6302;42.624;23.334;2023-04-30T04:39:02;9.57;;;7.87;;
12474;SDS011;6302;42.624;23.334;2023-04-30T04:41:30;9.37;;;7.83;;
12474;SDS011;6302;42.624;23.334;2023-04-30T04:43:58;9.87;;;8.30;;
12474;SDS011;6302;42.624;23.334;2023-04-30T04:46:26;9.07;;;8.10;;
12474;SDS011;6302;42.624;23.334;2023-04-30T04:48:53;10.80;;;8.20;;
12474;SDS011;6302;42.624;23.334;2023-04-30T04:51:21;10.30;;;8.53;;
12474;SDS011;6302;42.624;23.334;2023-04-30T04:53:48;9.00;;;7.83;;
12474;SDS011;6302;42.624;23.334;2023-04-30T04:56:15;10.77;;;8.17;;
12474;SDS011;6302;42.624;23.334;2023-04-30T04:58:43;9.70;;;8.27;;
12474;SDS011;6302;42.624;23.334;2023-04-30T05:01:10;13.43;;;8.00;;
12474;SDS011;6302;42.624;23.334;2023-04-30T05:03:37;10.97;;;7.70;;
12474;SDS011;6302;42.624;23.334;2023-04-30T05:06:04;9.30;;;8.00;;
12474;SDS011;6302;42.624;23.334;2023-04-30T05:08:33;9.63;;;8.50;;
12474;SDS011;6302;42.624;23.334;2023-04-30T05:11:00;12.97;;;8.67;;
12474;SDS011;6302;42.624;23.334;2023-04-30T05:13:27;11.30;;;8.43;;
12474;SDS011;6302;42.624;23.334;2023-04-30T05:15:54;12.27;;;8.30;;
12474;SDS011;6302;42.624;23.334;2023-04-30T05:18:21;11.13;;;8.40;;
12474;SDS011;6302;42.624;23.334;2023-04-30T05:20:48;10.57;;;8.53;;
12474;SDS011;6302;42.624;23.334;2023-04-30T05:23:14;9.40;;;8.03;;
12474;SDS011;6302;42.624;23.334;2023-04-30T05:25:43;11.53;;;8.90;;
12474;SDS011;6302;42.624;23.334;2023-04-30T05:28:10;11.67;;;9.03;;
12474;SDS011;6302;42.624;23.334;2023-04-30T05:30:37;9.97;;;8.63;;
12474;SDS011;6302;42.624;23.334;2023-04-30T05:33:04;14.57;;;8.77;;
12474;SDS011;6302;42.624;23.334;2023-04-30T05:35:30;10.37;;;9.27;;
12474;SDS011;6302;42.624;23.334;2023-04-30T05:38:00;13.83;;;9.43;;
12474;SDS011;6302;42.624;23.334;2023-04-30T05:40:26;12.17;;;9.07;;
12474;SDS011;6302;42.624;23.334;2023-04-30T05:42:55;14.97;;;9.37;;
12474;SDS011;6302;42.624;23.334;2023-04-30T05:45:21;11.47;;;9.20;;
12474;SDS011;6302;42.624;23.334;2023-04-30T05:47:49;11.83;;;9.37;;
12474;SDS011;6302;42.624;23.334;2023-04-30T05:50:16;12.63;;;9.57;;
12474;SDS011;6302;42.624;23.334;2023-04-30T05:52:42;11.33;;;9.50;;
12474;SDS011;6302;42.624;23.334;2023-04-30T05:55:09;11.70;;;10.23;;
12474;SDS011;6302;42.624;23.334;2023-04-30T05:57:36;13.50;;;9.77;;
12474;SDS011;6302;42.624;23.334;2023-04-30T06:00:05;12.90;;;11.00;;
12474;SDS011;6302;42.624;23.334;2023-04-30T06:02:33;17.93;;;10.37;;
12474;SDS011;6302;42.624;23.334;2023-04-30T06:05:00;18.03;;;10.63;;
12474;SDS011;6302;42.624;23.334;2023-04-30T06:07:27;11.73;;;9.30;;
12474;SDS011;6302;42.624;23.334;2023-04-30T06:09:54;11.27;;;9.23;;
12474;SDS011;6302;42.624;23.334;2023-04-30T06:12:21;14.43;;;9.63;;
12474;SDS011;6302;42.624;23.334;2023-04-30T06:14:48;12.17;;;8.93;;
12474;SDS011;6302;42.624;23.334;2023-04-30T06:17:16;15.70;;;8.70;;
12474;SDS011;6302;42.624;23.334;2023-04-30T06:19:43;12.80;;;9.67;;
12474;SDS011;6302;42.624;23.334;2023-04-30T06:22:10;13.57;;;9.53;;
12474;SDS011;6302;42.624;23.334;2023-04-30T06:24:38;16.47;;;9.90;;
12474;SDS011;6302;42.624;23.334;2023-04-30T06:27:05;12.47;;;9.70;;
12474;SDS011;6302;42.624;23.334;2023-04-30T06:29:32;11.53;;;9.13;;
12474;SDS011;6302;42.624;23.334;2023-04-30T06:31:59;11.77;;;10.10;;
12474;SDS011;6302;42.624;23.334;2023-04-30T06:34:27;12.37;;;10.17;;
12474;SDS011;6302;42.624;23.334;2023-04-30T06:36:55;15.70;;;10.60;;
12474;SDS011;6302;42.624;23.334;2023-04-30T06:39:21;14.50;;;9.63;;
12474;SDS011;6302;42.624;23.334;2023-04-30T06:41:48;10.33;;;8.90;;
12474;SDS011;6302;42.624;23.334;2023-04-30T06:44:16;12.47;;;10.23;;
12474;SDS011;6302;42.624;23.334;2023-04-30T06:46:43;13.53;;;9.97;;
12474;SDS011;6302;42.624;23.334;2023-04-30T06:49:10;12.80;;;10.13;;
12474;SDS011;6302;42.624;23.334;2023-04-30T06:51:39;18.73;;;11.30;;
12474;SDS011;6302;42.624;23.334;2023-04-30T06:54:06;14.97;;;10.90;;
12474;SDS011;6302;42.624;23.334;2023-04-30T06:56:33;13.40;;;11.00;;
12474;SDS011;6302;42.624;23.334;2023-04-30T06:59:00;13.13;;;9.83;;
12474;SDS011;6302;42.624;23.334;2023-04-30T07:01:28;11.37;;;10.17;;
12474;SDS011;6302;42.624;23.334;2023-04-30T07:03:54;14.83;;;9.77;;
12474;SDS011;6302;42.624;23.334;2023-04-30T07:06:21;10.93;;;9.23;;
12474;SDS011;6302;42.624;23.334;2023-04-30T07:08:49;13.20;;;10.33;;
12474;SDS011;6302;42.624;23.334;2023-04-30T07:11:16;11.70;;;9.83;;
12474;SDS011;6302;42.624;23.334;2023-04-30T07:13:43;13.57;;;9.97;;
12474;SDS011;6302;42.624;23.334;2023-04-30T07:16:10;12.27;;;9.80;;
12474;SDS011;6302;42.624;23.334;2023-04-30T07:18:36;10.97;;;9.53;;
12474;SDS011;6302;42.624;23.334;2023-04-30T07:21:04;13.67;;;9.37;;
12474;SDS011;6302;42.624;23.334;2023-04-30T07:23:32;15.70;;;9.77;;
12474;SDS011;6302;42.624;23.334;2023-04-30T07:26:00;12.77;;;9.77;;
12474;SDS011;6302;42.624;23.334;2023-04-30T07:28:27;13.63;;;9.27;;
12474;SDS011;6302;42.624;23.334;2023-04-30T07:30:54;12.60;;;8.80;;
12474;SDS011;6302;42.624;23.334;2023-04-30T07:33:21;13.07;;;9.47;;
12474;SDS011;6302;42.624;23.334;2023-04-30T07:35:47;13.20;;;9.07;;
12474;SDS011;6302;42.624;23.334;2023-04-30T07:38:15;10.93;;;8.00;;
12474;SDS011;6302;42.624;23.334;2023-04-30T07:40:43;9.23;;;8.17;;
12474;SDS011;6302;42.624;23.334;2023-04-30T07:43:11;15.37;;;9.27;;
12474;SDS011;6302;42.624;23.334;2023-04-30T07:45:38;14.87;;;8.67;;
12474;SDS011;6302;42.624;23.334;2023-04-30T07:48:04;14.53;;;9.03;;
12474;SDS011;6302;42.624;23.334;2023-04-30T07:50:31;11.83;;;8.63;;
12474;SDS011;6302;42.624;23.334;2023-04-30T07:52:58;12.00;;;8.70;;
12474;SDS011;6302;42.624;23.334;2023-04-30T07:55:26;10.47;;;8.53;;
12474;SDS011;6302;42.624;23.334;2023-04-30T07:57:52;11.63;;;8.27;;
12474;SDS011;6302;42.624;23.334;2023-04-30T08:00:20;14.40;;;8.53;;
12474;SDS011;6302;42.624;23.334;2023-04-30T08:02:48;11.40;;;8.47;;
12474;SDS011;6302;42.624;23.334;2023-04-30T08:05:14;10.53;;;8.17;;
12474;SDS011;6302;42.624;23.334;2023-04-30T08:07:41;12.60;;;7.97;;
12474;SDS011;6302;42.624;23.334;2023-04-30T08:10:09;9.13;;;7.40;;
12474;SDS011;6302;42.624;23.334;2023-04-30T08:12:36;10.57;;;6.93;;
12474;SDS011;6302;42.624;23.334;2023-04-30T08:15:03;7.17;;;5.70;;
12474;SDS011;6302;42.624;23.334;2023-04-30T08:17:33;6.50;;;5.67;;
12474;SDS011;6302;42.624;23.334;2023-04-30T08:20:00;8.87;;;6.17;;
12474;SDS011;6302;42.624;23.334;2023-04-30T08:22:27;7.30;;;5.40;;
12474;SDS011;6302;42.624;23.334;2023-04-30T08:24:54;9.67;;;4.97;;
12474;SDS011;6302;42.624;23.334;2023-04-30T08:27:21;7.30;;;4.80;;
12474;SDS011;6302;42.624;23.334;2023-04-30T08:29:48;8.40;;;4.00;;
12474;SDS011;6302;42.624;23.334;2023-04-30T08:32:14;5.17;;;4.53;;
12474;SDS011;6302;42.624;23.334;2023-04-30T08:34:43;7.57;;;4.50;;
12474;SDS011;6302;42.624;23.334;2023-04-30T08:37:10;4.80;;;4.20;;
12474;SDS011;6302;42.624;23.334;2023-04-30T08:39:37;6.20;;;4.53;;
12474;SDS011;6302;42.624;23.334;2023-04-30T08:42:05;4.33;;;3.93;;
12474;SDS011;6302;42.624;23.334;2023-04-30T08:44:34;5.53;;;4.57;;
12474;SDS011;6302;42.624;23.334;2023-04-30T08:47:03;4.83;;;4.43;;
12474;SDS011;6302;42.624;23.334;2023-04-30T08:49:33;20.00;;;5.30;;
12474;SDS011;6302;42.624;23.334;2023-04-30T08:52:02;4.77;;;4.27;;
12474;SDS011;6302;42.624;23.334;2023-04-30T08:54:29;5.47;;;4.10;;
12474;SDS011;6302;42.624;23.334;2023-04-30T08:56:57;4.53;;;3.73;;
12474;SDS011;6302;42.624;23.334;2023-04-30T08:59:24;5.03;;;3.40;;
12474;SDS011;6302;42.624;23.334;2023-04-30T09:01:50;3.83;;;3.47;;
12474;SDS011;6302;42.624;23.334;2023-04-30T09:04:17;4.40;;;3.73;;
12474;SDS011;6302;42.624;23.334;2023-04-30T09:06:44;5.20;;;3.47;;
12474;SDS011;6302;42.624;23.334;2023-04-30T09:09:13;3.70;;;3.30;;
12474;SDS011;6302;42.624;23.334;2023-04-30T09:11:40;4.30;;;3.87;;
12474;SDS011;6302;42.624;23.334;2023-04-30T09:14:08;5.20;;;4.13;;
12474;SDS011;6302;42.624;23.334;2023-04-30T09:16:44;4.30;;;3.87;;
12474;SDS011;6302;42.624;23.334;2023-04-30T09:19:22;6.10;;;4.30;;
12474;SDS011;6302;42.624;23.334;2023-04-30T09:21:50;6.30;;;3.87;;
12474;SDS011;6302;42.624;23.334;2023-04-30T09:24:18;4.73;;;3.77;;
12474;SDS011;6302;42.624;23.334;2023-04-30T09:26:45;5.20;;;4.03;;
12474;SDS011;6302;42.624;23.334;2023-04-30T09:29:12;5.77;;;4.03;;
12474;SDS011;6302;42.624;23.334;2023-04-30T09:31:41;4.33;;;3.93;;
12474;SDS011;6302;42.624;23.334;2023-04-30T09:34:09;4.20;;;3.67;;
12474;SDS011;6302;42.624;23.334;2023-04-30T09:36:36;3.93;;;3.57;;
12474;SDS011;6302;42.624;23.334;2023-04-30T09:39:06;5.20;;;3.97;;
12474;SDS011;6302;42.624;23.334;2023-04-30T09:41:37;4.37;;;3.73;;
12474;SDS011;6302;42.624;23.334;2023-04-30T09:44:04;3.50;;;2.83;;
12474;SDS011;6302;42.624;23.334;2023-04-30T09:46:31;4.10;;;3.37;;
12474;SDS011;6302;42.624;23.334;2023-04-30T09:49:00;3.73;;;3.43;;
12474;SDS011;6302;42.624;23.334;2023-04-30T09:51:27;3.87;;;3.57;;
12474;SDS011;6302;42.624;23.334;2023-04-30T09:53:55;3.90;;;3.30;;
12474;SDS011;6302;42.624;23.334;2023-04-30T09:56:22;4.33;;;3.53;;
12474;SDS011;6302;42.624;23.334;2023-04-30T09:58:52;3.70;;;3.40;;
12474;SDS011;6302;42.624;23.334;2023-04-30T10:01:21;4.80;;;4.30;;
12474;SDS011;6302;42.624;23.334;2023-04-30T10:03:52;3.60;;;3.30;;
12474;SDS011;6302;42.624;23.334;2023-04-30T10:06:19;4.87;;;3.77;;
12474;SDS011;6302;42.624;23.334;2023-04-30T10:08:47;4.00;;;3.70;;
12474;SDS011;6302;42.624;23.334;2023-04-30T10:11:19;4.13;;;3.73;;
12474;SDS011;6302;42.624;23.334;2023-04-30T10:13:50;3.67;;;3.37;;
12474;SDS011;6302;42.624;23.334;2023-04-30T10:16:23;19.40;;;4.70;;
12474;SDS011;6302;42.624;23.334;2023-04-30T10:18:56;4.23;;;3.20;;
12474;SDS011;6302;42.624;23.334;2023-04-30T10:21:28;3.43;;;3.13;;
12474;SDS011;6302;42.624;23.334;2023-04-30T10:23:56;2.97;;;2.77;;
12474;SDS011;6302;42.624;23.334;2023-04-30T10:26:23;3.60;;;3.30;;
12474;SDS011;6302;42.624;23.334;2023-04-30T10:28:52;3.97;;;3.57;;
12474;SDS011;6302;42.624;23.334;2023-04-30T10:31:23;3.73;;;3.43;;
12474;SDS011;6302;42.624;23.334;2023-04-30T10:33:53;3.33;;;3.03;;
12474;SDS011;6302;42.624;23.334;2023-04-30T10:36:32;4.50;;;3.83;;
12474;SDS011;6302;42.624;23.334;2023-04-30T10:39:05;5.90;;;4.03;;
12474;SDS011;6302;42.624;23.334;2023-04-30T10:41:33;7.97;;;4.13;;
12474;SDS011;6302;42.624;23.334;2023-04-30T10:44:01;6.82;;;4.65;;
12474;SDS011;6302;42.624;23.334;2023-04-30T10:46:29;6.43;;;3.90;;
12474;SDS011;6302;42.624;23.334;2023-04-30T10:48:56;5.93;;;5.30;;
12474;SDS011;6302;42.624;23.334;2023-04-30T10:51:25;6.50;;;5.90;;
12474;SDS011;6302;42.624;23.334;2023-04-30T10:54:10;6.87;;;5.97;;
12474;SDS011;6302;42.624;23.334;2023-04-30T10:56:38;7.03;;;6.33;;
12474;SDS011;6302;42.624;23.334;2023-04-30T10:59:07;7.93;;;7.13;;
12474;SDS011;6302;42.624;23.334;2023-04-30T11:01:53;7.20;;;6.50;;
12474;SDS011;6302;42.624;23.334;2023-04-30T11:04:20;7.43;;;5.90;;
12474;SDS011;6302;42.624;23.334;2023-04-30T11:06:48;7.70;;;6.03;;
12474;SDS011;6302;42.624;23.334;2023-04-30T11:09:23;7.00;;;6.30;;
12474;SDS011;6302;42.624;23.334;2023-04-30T11:12:01;5.83;;;4.90;;
12474;SDS011;6302;42.624;23.334;2023-04-30T11:14:31;7.07;;;5.00;;
12474;SDS011;6302;42.624;23.334;2023-04-30T11:16:59;4.97;;;4.57;;
12474;SDS011;6302;42.624;23.334;2023-04-30T11:19:26;6.13;;;4.07;;
12474;SDS011;6302;42.624;23.334;2023-04-30T11:24:53;5.53;;;3.90;;
12474;SDS011;6302;42.624;23.334;2023-04-30T11:27:28;4.13;;;3.63;;
12474;SDS011;6302;42.624;23.334;2023-04-30T11:29:57;4.10;;;3.43;;
12474;SDS011;6302;42.624;23.334;2023-04-30T11:32:24;5.50;;;4.20;;
12474;SDS011;6302;42.624;23.334;2023-04-30T11:34:52;3.70;;;3.40;;
12474;SDS011;6302;42.624;23.334;2023-04-30T11:37:23;5.10;;;4.30;;
12474;SDS011;6302;42.624;23.334;2023-04-30T11:39:55;4.10;;;3.77;;
12474;SDS011;6302;42.624;23.334;2023-04-30T11:42:22;5.17;;;4.67;;
12474;SDS011;6302;42.624;23.334;2023-04-30T11:44:49;6.70;;;4.13;;
12474;SDS011;6302;42.624;23.334;2023-04-30T11:47:17;12.50;;;8.33;;
12474;SDS011;6302;42.624;23.334;2023-04-30T11:49:44;3.93;;;3.63;;
12474;SDS011;6302;42.624;23.334;2023-04-30T11:52:11;5.70;;;3.37;;
12474;SDS011;6302;42.624;23.334;2023-04-30T11:54:38;3.70;;;3.40;;
12474;SDS011;6302;42.624;23.334;2023-04-30T11:57:05;4.20;;;3.80;;
12474;SDS011;6302;42.624;23.334;2023-04-30T11:59:38;3.60;;;3.30;;
12474;SDS011;6302;42.624;23.334;2023-04-30T12:02:06;3.10;;;2.67;;
12474;SDS011;6302;42.624;23.334;2023-04-30T12:04:34;6.03;;;3.27;;
12474;SDS011;6302;42.624;23.334;2023-04-30T12:07:02;5.47;;;4.90;;
12474;SDS011;6302;42.624;23.334;2023-04-30T12:09:29;6.43;;;5.13;;
12474;SDS011;6302;42.624;23.334;2023-04-30T12:11:56;3.83;;;3.53;;
12474;SDS011;6302;42.624;23.334;2023-04-30T12:14:23;3.57;;;3.27;;
12474;SDS011;6302;42.624;23.334;2023-04-30T12:16:51;3.53;;;3.23;;
12474;SDS011;6302;42.624;23.334;2023-04-30T12:19:18;6.53;;;3.43;;
12474;SDS011;6302;42.624;23.334;2023-04-30T12:21:47;3.80;;;3.50;;
12474;SDS011;6302;42.624;23.334;2023-04-30T12:24:15;3.47;;;3.17;;
12474;SDS011;6302;42.624;23.334;2023-04-30T12:26:43;4.03;;;2.80;;
12474;SDS011;6302;42.624;23.334;2023-04-30T12:29:13;3.50;;;3.20;;
12474;SDS011;6302;42.624;23.334;2023-04-30T12:31:41;3.60;;;3.30;;
12474;SDS011;6302;42.624;23.334;2023-04-30T12:34:09;3.50;;;3.20;;
12474;SDS011;6302;42.624;23.334;2023-04-30T12:36:38;3.10;;;2.90;;
12474;SDS011;6302;42.624;23.334;2023-04-30T12:39:09;3.70;;;3.33;;
12474;SDS011;6302;42.624;23.334;2023-04-30T12:41:38;3.47;;;3.17;;
12474;SDS011;6302;42.624;23.334;2023-04-30T12:44:16;3.13;;;2.90;;
12474;SDS011;6302;42.624;23.334;2023-04-30T12:46:44;3.10;;;2.80;;
12474;SDS011;6302;42.624;23.334;2023-04-30T12:49:20;2.67;;;2.47;;
12474;SDS011;6302;42.624;23.334;2023-04-30T12:51:48;6.97;;;3.10;;
12474;SDS011;6302;42.624;23.334;2023-04-30T12:54:24;3.37;;;2.80;;
12474;SDS011;6302;42.624;23.334;2023-04-30T12:56:58;2.97;;;2.70;;
12474;SDS011;6302;42.624;23.334;2023-04-30T12:59:26;2.57;;;2.37;;
12474;SDS011;6302;42.624;23.334;2023-04-30T13:01:53;3.17;;;2.77;;
12474;SDS011;6302;42.624;23.334;2023-04-30T13:04:20;3.50;;;3.20;;
12474;SDS011;6302;42.624;23.334;2023-04-30T13:06:47;4.20;;;3.00;;
12474;SDS011;6302;42.624;23.334;2023-04-30T13:09:14;3.40;;;2.77;;
12474;SDS011;6302;42.624;23.334;2023-04-30T13:11:43;5.10;;;3.00;;
12474;SDS011;6302;42.624;23.334;2023-04-30T13:14:10;2.70;;;2.50;;
12474;SDS011;6302;42.624;23.334;2023-04-30T13:16:37;2.80;;;2.50;;
12474;SDS011;6302;42.624;23.334;2023-04-30T13:19:04;2.53;;;2.33;;
12474;SDS011;6302;42.624;23.334;2023-04-30T13:21:31;2.60;;;2.40;;
12474;SDS011;6302;42.624;23.334;2023-04-30T13:23:59;3.00;;;2.80;;
12474;SDS011;6302;42.624;23.334;2023-04-30T13:26:26;3.30;;;2.90;;
12474;SDS011;6302;42.624;23.334;2023-04-30T13:28:54;3.10;;;2.90;;
12474;SDS011;6302;42.624;23.334;2023-04-30T13:31:21;2.67;;;2.47;;
12474;SDS011;6302;42.624;23.334;2023-04-30T13:33:47;3.10;;;2.90;;
12474;SDS011;6302;42.624;23.334;2023-04-30T13:36:14;2.90;;;2.70;;
12474;SDS011;6302;42.624;23.334;2023-04-30T13:38:41;3.57;;;3.27;;
12474;SDS011;6302;42.624;23.334;2023-04-30T13:41:08;3.83;;;3.03;;
12474;SDS011;6302;42.624;23.334;2023-04-30T13:43:35;3.93;;;3.03;;
12474;SDS011;6302;42.624;23.334;2023-04-30T13:46:04;3.13;;;2.93;;
12474;SDS011;6302;42.624;23.334;2023-04-30T13:48:30;3.43;;;3.20;;
12474;SDS011;6302;42.624;23.334;2023-04-30T13:50:57;3.83;;;2.90;;
12474;SDS011;6302;42.624;23.334;2023-04-30T13:53:25;2.77;;;2.53;;
12474;SDS011;6302;42.624;23.334;2023-04-30T13:55:52;3.10;;;2.90;;
12474;SDS011;6302;42.624;23.334;2023-04-30T13:58:19;3.07;;;2.77;;
12474;SDS011;6302;42.624;23.334;2023-04-30T14:00:46;3.17;;;2.90;;
12474;SDS011;6302;42.624;23.334;2023-04-30T14:03:14;4.20;;;3.03;;
12474;SDS011;6302;42.624;23.334;2023-04-30T14:05:41;3.10;;;2.90;;
12474;SDS011;6302;42.624;23.334;2023-04-30T14:08:08;3.60;;;2.50;;
12474;SDS011;6302;42.624;23.334;2023-04-30T14:10:36;2.80;;;2.60;;
12474;SDS011;6302;42.624;23.334;2023-04-30T14:13:03;3.20;;;2.90;;
12474;SDS011;6302;42.624;23.334;2023-04-30T14:15:30;3.20;;;2.10;;
12474;SDS011;6302;42.624;23.334;2023-04-30T14:17:57;3.10;;;2.87;;
12474;SDS011;6302;42.624;23.334;2023-04-30T14:20:25;2.90;;;2.60;;
12474;SDS011;6302;42.624;23.334;2023-04-30T14:22:52;2.50;;;2.30;;
12474;SDS011;6302;42.624;23.334;2023-04-30T14:25:19;2.60;;;2.40;;
12474;SDS011;6302;42.624;23.334;2023-04-30T14:27:46;5.07;;;2.90;;
12474;SDS011;6302;42.624;23.334;2023-04-30T14:30:13;4.30;;;3.27;;
12474;SDS011;6302;42.624;23.334;2023-04-30T14:32:40;5.63;;;3.10;;
12474;SDS011;6302;42.624;23.334;2023-04-30T14:35:07;3.70;;;2.90;;
12474;SDS011;6302;42.624;23.334;2023-04-30T14:37:36;3.60;;;2.93;;
12474;SDS011;6302;42.624;23.334;2023-04-30T14:40:03;3.20;;;2.80;;
12474;SDS011;6302;42.624;23.334;2023-04-30T14:42:32;4.27;;;2.80;;
12474;SDS011;6302;42.624;23.334;2023-04-30T14:44:59;3.93;;;2.80;;
12474;SDS011;6302;42.624;23.334;2023-04-30T14:47:26;5.70;;;3.07;;
12474;SDS011;6302;42.624;23.334;2023-04-30T14:49:53;3.60;;;2.87;;
12474;SDS011;6302;42.624;23.334;2023-04-30T14:52:22;7.97;;;5.40;;
12474;SDS011;6302;42.624;23.334;2023-04-30T14:54:51;7.30;;;3.90;;